Time;durP1;ratioP1;P1;durP2;ratioP2;P2;SDS_P1;SDS_P2;PMS_P1;PMS_P2;Temp;Humidity;BMP_temperature;BMP_pressure;BME280_temperature;BME280_humidity;BME280_pressure;Samples;Min_cycle;Max_cycle;Signal;HPM_P1;HPM_P2
2023/08/09 08:31:15;;;;;;;1.60;1.30;;;;;;;26.16;46.51;99258.36;422510;1294;600422;-63
2023/08/09 08:41:21;;;;;;;1.80;0.90;;;;;;;27.49;41.73;99270.73;441492;1266;137334;-63
2023/08/09 08:51:29;;;;;;;1.40;1.20;;;;;;;27.65;39.61;99269.74;433533;1259;137572;-65
2023/08/09 09:01:35;;;;;;;3.10;1.50;;;;;;;27.69;38.48;99266.11;434218;1260;137397;-63
2023/08/09 09:11:41;;;;;;;2.20;1.70;;;;;;;27.93;38.14;99258.23;433536;1260;138110;-63
2023/08/09 09:21:47;;;;;;;1.50;1.10;;;;;;;27.98;37.62;99260.80;433447;1260;138892;-63
2023/08/09 09:31:52;;;;;;;3.20;1.60;;;;;;;27.91;37.66;99255.32;433480;1257;137772;-62
2023/08/09 09:41:58;;;;;;;1.50;1.30;;;;;;;27.54;37.13;99254.86;433334;1260;138001;-63
2023/08/09 09:52:06;;;;;;;5.60;1.00;;;;;;;26.93;37.35;99251.90;435308;1260;137407;-68
2023/08/09 10:02:12;;;;;;;2.00;0.90;;;;;;;26.51;37.80;99241.71;434234;1260;137277;-68
2023/08/09 10:12:18;;;;;;;1.60;1.20;;;;;;;26.12;37.85;99234.58;435516;1262;138113;-71
2023/08/09 10:22:25;;;;;;;2.30;1.20;;;;;;;25.73;38.19;99230.36;437848;1260;138019;-73
2023/08/09 10:43:09;;;;;;;1.30;1.10;;;;;;;23.95;40.14;99240.53;422666;1294;599963;-68
2023/08/09 10:53:22;;;;;;;1.90;1.20;;;;;;;22.61;42.62;99260.80;432637;1268;151594;-67
2023/08/09 11:03:27;;;;;;;1.30;1.10;;;;;;;21.64;45.97;99264.81;434086;1266;138022;-68
2023/08/09 11:13:37;;;;;;;1.70;1.60;;;;;;;21.11;48.27;99267.26;432663;1266;137394;-68
2023/08/09 11:24:00;;;;;;;3.80;1.40;;;;;;;20.68;50.44;99275.94;433190;1268;137484;-63
2023/08/09 11:34:07;;;;;;;3.00;1.40;;;;;;;20.16;52.29;99289.42;432823;1269;138028;-69
2023/08/09 11:44:15;;;;;;;2.50;1.70;;;;;;;19.81;54.46;99297.79;436781;1263;140085;-71
2023/08/09 11:54:21;;;;;;;3.10;2.20;;;;;;;19.54;56.31;99307.21;434909;1264;137574;-64
2023/08/09 12:04:29;;;;;;;3.40;2.40;;;;;;;19.45;58.14;99314.79;432819;1264;138546;-61
2023/08/09 12:14:37;;;;;;;8.70;2.50;;;;;;;19.31;58.82;99319.40;433198;1266;138493;-58
2023/08/09 12:24:43;;;;;;;2.60;2.40;;;;;;;19.14;60.21;99324.36;433846;1260;138412;-65
2023/08/09 12:34:49;;;;;;;8.50;3.40;;;;;;;19.10;61.18;99327.02;433906;1262;139865;-59
2023/08/09 12:44:56;;;;;;;1.30;1.20;;;;;;;18.82;60.83;99332.58;434948;1259;138933;-64
2023/08/09 12:55:01;;;;;;;7.50;2.10;;;;;;;18.09;60.08;99337.04;434614;1260;139907;-64
2023/08/09 13:05:09;;;;;;;2.60;1.90;;;;;;;17.89;61.05;99344.30;434538;1259;138945;-64
2023/08/09 13:15:15;;;;;;;2.50;1.10;;;;;;;17.76;61.51;99335.95;434206;1259;139455;-68
2023/08/09 13:25:21;;;;;;;4.30;1.40;;;;;;;17.52;61.53;99332.11;434358;1259;138288;-60
2023/08/09 13:35:27;;;;;;;3.50;1.30;;;;;;;16.96;61.59;99329.08;434146;1259;138931;-61
2023/08/09 13:45:33;;;;;;;2.40;1.10;;;;;;;16.50;61.27;99337.27;434356;1255;138926;-60
2023/08/09 13:55:39;;;;;;;1.70;1.20;;;;;;;16.24;62.31;99346.73;434441;1258;139535;-60
2023/08/09 14:05:45;;;;;;;2.10;1.70;;;;;;;16.15;63.16;99348.63;434193;1257;138802;-61
2023/08/09 14:15:51;;;;;;;2.90;1.30;;;;;;;15.83;63.84;99351.23;435362;1259;140041;-62
2023/08/09 14:25:57;;;;;;;2.40;1.70;;;;;;;15.65;64.90;99354.60;435274;1260;138635;-61
2023/08/09 14:36:03;;;;;;;2.70;1.60;;;;;;;15.40;65.76;99353.23;433931;1259;138686;-64
2023/08/09 14:46:09;;;;;;;2.20;1.40;;;;;;;15.54;67.24;99353.24;434224;1260;140842;-60
2023/08/09 14:56:15;;;;;;;3.50;2.10;;;;;;;15.78;67.80;99354.46;434459;1260;140637;-60
2023/08/09 15:06:22;;;;;;;3.00;1.70;;;;;;;15.95;68.44;99365.52;434458;1260;138717;-60
2023/08/09 15:16:28;;;;;;;5.80;2.10;;;;;;;16.07;68.35;99363.60;434536;1259;140546;-70
2023/08/09 15:26:34;;;;;;;1.70;1.60;;;;;;;16.04;68.41;99370.37;435811;1258;139732;-63
2023/08/09 15:36:40;;;;;;;1.80;1.60;;;;;;;16.06;68.21;99381.19;434109;1259;138445;-63
2023/08/09 15:46:46;;;;;;;1.30;1.20;;;;;;;15.92;68.03;99396.66;434467;1260;138759;-66
2023/08/09 15:56:52;;;;;;;2.60;1.90;;;;;;;15.84;68.66;99410.25;434364;1260;141346;-69
2023/08/09 16:06:58;;;;;;;1.30;1.20;;;;;;;15.91;68.44;99412.11;436491;1254;138506;-61
2023/08/09 16:17:04;;;;;;;2.40;1.50;;;;;;;15.85;67.83;99421.13;434015;1259;140338;-61
2023/08/09 16:27:10;;;;;;;5.10;2.30;;;;;;;15.74;68.00;99422.26;434695;1260;138882;-61
2023/08/09 16:37:16;;;;;;;2.60;1.50;;;;;;;15.76;68.36;99424.02;434926;1254;140055;-60
2023/08/09 16:47:22;;;;;;;3.40;1.80;;;;;;;15.84;68.78;99431.30;434191;1254;138833;-61
2023/08/09 16:57:29;;;;;;;1.60;1.50;;;;;;;15.71;68.94;99441.98;434708;1256;139550;-60
2023/08/09 17:07:36;;;;;;;2.80;1.90;;;;;;;15.59;69.35;99448.95;434425;1260;139550;-61
2023/08/09 17:17:42;;;;;;;2.60;2.20;;;;;;;15.39;69.76;99455.13;434486;1257;138945;-61
2023/08/09 17:27:48;;;;;;;4.00;2.20;;;;;;;15.19;70.49;99456.29;434385;1255;140166;-60
2023/08/09 17:37:54;;;;;;;4.40;2.20;;;;;;;14.99;71.25;99462.00;433948;1256;138607;-60
2023/08/09 17:48:00;;;;;;;4.20;2.00;;;;;;;14.94;72.10;99471.55;433880;1258;139003;-62
2023/08/09 17:58:06;;;;;;;2.70;2.20;;;;;;;14.82;72.33;99485.61;434349;1257;138841;-61
2023/08/09 18:08:12;;;;;;;3.90;2.00;;;;;;;14.70;72.93;99491.16;434295;1254;138960;-60
2023/08/09 18:18:18;;;;;;;3.30;2.00;;;;;;;14.62;73.64;99507.14;434365;1258;138852;-60
2023/08/09 18:28:24;;;;;;;4.30;2.80;;;;;;;14.53;74.08;99518.44;434382;1254;139029;-61
2023/08/09 18:38:29;;;;;;;3.10;2.80;;;;;;;14.46;75.14;99536.48;434322;1257;140318;-65
2023/08/09 18:48:35;;;;;;;4.00;3.10;;;;;;;14.36;76.30;99563.84;434340;1258;138759;-62
2023/08/09 18:58:41;;;;;;;3.70;2.90;;;;;;;14.19;77.46;99569.58;434315;1254;140316;-62
2023/08/09 19:08:47;;;;;;;39.50;22.50;;;;;;;13.98;78.38;99576.48;434418;1257;140115;-61
2023/08/09 19:18:53;;;;;;;10.80;7.40;;;;;;;13.75;79.03;99595.20;434011;1256;140152;-62
2023/08/09 19:28:59;;;;;;;7.60;5.90;;;;;;;13.49;79.84;99593.96;434406;1256;139318;-62
2023/08/09 19:39:05;;;;;;;8.60;6.40;;;;;;;13.27;80.71;99606.48;434410;1259;140075;-63
2023/08/09 19:49:11;;;;;;;11.60;7.40;;;;;;;13.07;81.68;99611.30;434797;1253;138431;-62
2023/08/09 19:59:17;;;;;;;9.40;6.90;;;;;;;12.84;82.14;99613.16;434367;1254;140712;-63
2023/08/09 20:09:23;;;;;;;12.80;7.40;;;;;;;12.51;81.97;99624.27;434937;1253;140802;-63
2023/08/09 20:19:30;;;;;;;11.70;7.60;;;;;;;12.26;83.00;99630.25;435460;1256;138691;-62
2023/08/09 20:29:36;;;;;;;9.50;7.30;;;;;;;12.07;83.59;99637.89;435055;1254;139832;-63
2023/08/09 20:39:42;;;;;;;8.30;6.70;;;;;;;11.88;84.52;99651.77;434757;1255;138700;-63
2023/08/09 20:49:48;;;;;;;8.60;5.90;;;;;;;11.68;85.22;99657.15;434520;1254;139159;-63
2023/08/09 20:59:54;;;;;;;11.60;7.50;;;;;;;11.43;85.27;99654.82;434247;1257;139973;-63
2023/08/09 21:10:00;;;;;;;17.00;9.70;;;;;;;11.23;86.50;99669.06;434226;1257;139297;-62
2023/08/09 21:20:09;;;;;;;8.60;7.70;;;;;;;11.12;88.40;99672.27;434369;1258;139478;-63
2023/08/09 21:30:16;;;;;;;9.50;7.20;;;;;;;11.05;89.91;99680.54;435215;1257;139295;-63
2023/08/09 21:40:22;;;;;;;8.30;7.40;;;;;;;10.97;90.09;99690.15;434597;1256;139021;-63
2023/08/09 21:50:28;;;;;;;11.10;7.60;;;;;;;10.90;90.37;99693.57;434224;1256;138557;-63
2023/08/09 22:00:34;;;;;;;9.90;7.20;;;;;;;10.80;90.42;99698.39;434724;1259;138470;-63
2023/08/09 22:10:40;;;;;;;10.60;8.80;;;;;;;10.68;90.92;99697.21;434644;1253;140216;-63
2023/08/09 22:20:47;;;;;;;11.10;6.80;;;;;;;10.55;92.10;99702.39;434649;1259;139646;-61
2023/08/09 22:30:52;;;;;;;14.60;10.30;;;;;;;10.43;92.65;99712.95;435263;1254;138755;-63
2023/08/09 22:40:58;;;;;;;11.50;10.20;;;;;;;10.35;93.87;99718.32;434839;1254;139981;-62
2023/08/09 22:51:04;;;;;;;9.40;8.20;;;;;;;10.31;94.95;99722.90;434156;1259;139766;-61
2023/08/09 23:01:10;;;;;;;9.50;8.60;;;;;;;10.27;95.28;99726.46;434927;1253;140197;-62
2023/08/09 23:11:16;;;;;;;10.80;9.30;;;;;;;10.25;95.35;99731.48;434449;1253;138824;-62
2023/08/09 23:21:22;;;;;;;11.20;9.40;;;;;;;10.24;95.87;99739.59;434167;1258;140582;-62
2023/08/09 23:31:28;;;;;;;26.90;9.20;;;;;;;10.23;96.78;99748.05;434474;1259;138472;-62
2023/08/09 23:41:34;;;;;;;9.80;8.80;;;;;;;10.23;97.68;99746.32;434148;1256;139971;-63
2023/08/09 23:51:40;;;;;;;12.80;9.50;;;;;;;10.26;99.20;99749.13;434022;1258;139903;-62
